sensor_id;sensor_type;location;lat;lon;timestamp;P1;durP1;ratioP1;P2;durP2;ratioP2
81457;SDS011;70882;52.500;5.500;2023-06-22T00:00:52;24.17;;;13.65;;
81457;SDS011;70882;52.500;5.500;2023-06-22T00:03:18;26.42;;;14.38;;
81457;SDS011;70882;52.500;5.500;2023-06-22T00:05:45;30.30;;;16.40;;
81457;SDS011;70882;52.500;5.500;2023-06-22T00:08:13;27.88;;;16.20;;
81457;SDS011;70882;52.500;5.500;2023-06-22T00:10:39;31.70;;;17.80;;
81457;SDS011;70882;52.500;5.500;2023-06-22T00:13:05;33.70;;;18.98;;
81457;SDS011;70882;52.500;5.500;2023-06-22T00:15:32;33.58;;;16.52;;
81457;SDS011;70882;52.500;5.500;2023-06-22T00:17:58;35.17;;;17.42;;
81457;SDS011;70882;52.500;5.500;2023-06-22T00:20:24;31.45;;;18.65;;
81457;SDS011;70882;52.500;5.500;2023-06-22T00:22:56;31.15;;;18.02;;
81457;SDS011;70882;52.500;5.500;2023-06-22T00:25:22;30.63;;;16.95;;
81457;SDS011;70882;52.500;5.500;2023-06-22T00:27:48;31.67;;;17.63;;
81457;SDS011;70882;52.500;5.500;2023-06-22T00:30:17;36.83;;;19.33;;
81457;SDS011;70882;52.500;5.500;2023-06-22T00:32:44;39.88;;;19.55;;
81457;SDS011;70882;52.500;5.500;2023-06-22T00:35:09;35.42;;;19.20;;
81457;SDS011;70882;52.500;5.500;2023-06-22T00:37:38;37.97;;;19.70;;
81457;SDS011;70882;52.500;5.500;2023-06-22T00:40:07;39.75;;;20.67;;
81457;SDS011;70882;52.500;5.500;2023-06-22T00:42:37;38.30;;;19.50;;
81457;SDS011;70882;52.500;5.500;2023-06-22T00:45:03;36.92;;;20.13;;
81457;SDS011;70882;52.500;5.500;2023-06-22T00:47:28;37.38;;;20.05;;
81457;SDS011;70882;52.500;5.500;2023-06-22T00:49:54;40.20;;;22.20;;
81457;SDS011;70882;52.500;5.500;2023-06-22T00:52:20;45.00;;;23.00;;
81457;SDS011;70882;52.500;5.500;2023-06-22T00:54:50;35.42;;;20.02;;
81457;SDS011;70882;52.500;5.500;2023-06-22T00:57:16;40.42;;;22.50;;
81457;SDS011;70882;52.500;5.500;2023-06-22T00:59:43;37.20;;;21.42;;
81457;SDS011;70882;52.500;5.500;2023-06-22T01:02:09;36.15;;;21.13;;
81457;SDS011;70882;52.500;5.500;2023-06-22T01:04:36;37.80;;;21.23;;
81457;SDS011;70882;52.500;5.500;2023-06-22T01:10:08;40.85;;;22.52;;
81457;SDS011;70882;52.500;5.500;2023-06-22T01:12:38;40.45;;;22.33;;
81457;SDS011;70882;52.500;5.500;2023-06-22T01:15:25;41.72;;;20.92;;
81457;SDS011;70882;52.500;5.500;2023-06-22T01:17:54;43.22;;;21.70;;
81457;SDS011;70882;52.500;5.500;2023-06-22T01:20:21;39.03;;;21.27;;
81457;SDS011;70882;52.500;5.500;2023-06-22T01:25:47;32.45;;;18.30;;
81457;SDS011;70882;52.500;5.500;2023-06-22T01:31:16;40.72;;;20.20;;
81457;SDS011;70882;52.500;5.500;2023-06-22T01:33:44;33.30;;;18.05;;
81457;SDS011;70882;52.500;5.500;2023-06-22T01:36:10;30.08;;;17.02;;
81457;SDS011;70882;52.500;5.500;2023-06-22T01:38:37;34.08;;;18.92;;
81457;SDS011;70882;52.500;5.500;2023-06-22T01:41:02;31.38;;;17.90;;
81457;SDS011;70882;52.500;5.500;2023-06-22T01:43:28;30.58;;;18.08;;
81457;SDS011;70882;52.500;5.500;2023-06-22T01:45:54;34.58;;;18.80;;
81457;SDS011;70882;52.500;5.500;2023-06-22T01:48:20;33.13;;;19.25;;
81457;SDS011;70882;52.500;5.500;2023-06-22T01:50:46;36.63;;;18.08;;
81457;SDS011;70882;52.500;5.500;2023-06-22T01:53:12;32.83;;;18.55;;
81457;SDS011;70882;52.500;5.500;2023-06-22T01:55:37;33.40;;;18.15;;
81457;SDS011;70882;52.500;5.500;2023-06-22T01:58:02;34.22;;;18.85;;
81457;SDS011;70882;52.500;5.500;2023-06-22T02:00:28;33.03;;;19.00;;
81457;SDS011;70882;52.500;5.500;2023-06-22T02:02:59;33.17;;;19.23;;
81457;SDS011;70882;52.500;5.500;2023-06-22T02:05:30;35.80;;;19.15;;
81457;SDS011;70882;52.500;5.500;2023-06-22T02:10:37;40.70;;;21.33;;
81457;SDS011;70882;52.500;5.500;2023-06-22T02:13:06;34.72;;;19.13;;
81457;SDS011;70882;52.500;5.500;2023-06-22T02:15:32;39.03;;;19.77;;
81457;SDS011;70882;52.500;5.500;2023-06-22T02:17:58;33.05;;;19.08;;
81457;SDS011;70882;52.500;5.500;2023-06-22T02:20:23;37.50;;;20.17;;
81457;SDS011;70882;52.500;5.500;2023-06-22T02:22:49;37.67;;;21.45;;
81457;SDS011;70882;52.500;5.500;2023-06-22T02:25:14;38.22;;;19.75;;
81457;SDS011;70882;52.500;5.500;2023-06-22T02:27:40;39.38;;;21.13;;
81457;SDS011;70882;52.500;5.500;2023-06-22T02:30:08;37.78;;;20.98;;
81457;SDS011;70882;52.500;5.500;2023-06-22T02:32:34;42.00;;;23.63;;
81457;SDS011;70882;52.500;5.500;2023-06-22T02:35:00;41.03;;;22.23;;
81457;SDS011;70882;52.500;5.500;2023-06-22T02:37:29;40.92;;;23.08;;
81457;SDS011;70882;52.500;5.500;2023-06-22T02:39:54;38.65;;;22.42;;
81457;SDS011;70882;52.500;5.500;2023-06-22T02:42:20;43.30;;;23.77;;
81457;SDS011;70882;52.500;5.500;2023-06-22T02:44:46;49.13;;;24.58;;
81457;SDS011;70882;52.500;5.500;2023-06-22T02:47:12;42.72;;;23.88;;
81457;SDS011;70882;52.500;5.500;2023-06-22T02:49:37;47.42;;;25.40;;
81457;SDS011;70882;52.500;5.500;2023-06-22T02:52:02;44.95;;;25.35;;
81457;SDS011;70882;52.500;5.500;2023-06-22T02:54:28;52.33;;;26.65;;
81457;SDS011;70882;52.500;5.500;2023-06-22T02:56:53;47.28;;;26.23;;
81457;SDS011;70882;52.500;5.500;2023-06-22T02:59:19;50.17;;;26.15;;
81457;SDS011;70882;52.500;5.500;2023-06-22T03:01:48;45.10;;;24.90;;
81457;SDS011;70882;52.500;5.500;2023-06-22T03:04:15;49.67;;;27.88;;
81457;SDS011;70882;52.500;5.500;2023-06-22T03:06:41;45.65;;;26.75;;
81457;SDS011;70882;52.500;5.500;2023-06-22T03:09:06;46.55;;;25.48;;
81457;SDS011;70882;52.500;5.500;2023-06-22T03:11:32;52.67;;;28.15;;
81457;SDS011;70882;52.500;5.500;2023-06-22T03:13:58;51.20;;;26.42;;
81457;SDS011;70882;52.500;5.500;2023-06-22T03:16:23;47.40;;;25.63;;
81457;SDS011;70882;52.500;5.500;2023-06-22T03:18:49;47.88;;;26.35;;
81457;SDS011;70882;52.500;5.500;2023-06-22T03:21:14;46.28;;;25.25;;
81457;SDS011;70882;52.500;5.500;2023-06-22T03:23:40;51.58;;;28.02;;
81457;SDS011;70882;52.500;5.500;2023-06-22T03:26:06;50.08;;;28.02;;
81457;SDS011;70882;52.500;5.500;2023-06-22T03:28:31;49.17;;;27.10;;
81457;SDS011;70882;52.500;5.500;2023-06-22T03:30:57;49.50;;;25.05;;
81457;SDS011;70882;52.500;5.500;2023-06-22T03:33:23;53.95;;;27.88;;
81457;SDS011;70882;52.500;5.500;2023-06-22T03:35:48;48.42;;;27.55;;
81457;SDS011;70882;52.500;5.500;2023-06-22T03:38:15;49.58;;;27.77;;
81457;SDS011;70882;52.500;5.500;2023-06-22T03:40:41;52.85;;;28.77;;
81457;SDS011;70882;52.500;5.500;2023-06-22T03:43:06;55.05;;;26.95;;
81457;SDS011;70882;52.500;5.500;2023-06-22T03:45:32;52.97;;;28.23;;
81457;SDS011;70882;52.500;5.500;2023-06-22T03:47:57;48.58;;;27.95;;
81457;SDS011;70882;52.500;5.500;2023-06-22T03:50:22;52.90;;;28.63;;
81457;SDS011;70882;52.500;5.500;2023-06-22T03:52:48;61.53;;;30.95;;
81457;SDS011;70882;52.500;5.500;2023-06-22T03:55:13;54.20;;;27.80;;
81457;SDS011;70882;52.500;5.500;2023-06-22T03:57:39;48.65;;;26.80;;
81457;SDS011;70882;52.500;5.500;2023-06-22T04:00:04;52.08;;;28.58;;
81457;SDS011;70882;52.500;5.500;2023-06-22T04:02:33;51.20;;;26.35;;
81457;SDS011;70882;52.500;5.500;2023-06-22T04:04:58;50.97;;;26.65;;
81457;SDS011;70882;52.500;5.500;2023-06-22T04:07:23;52.03;;;27.35;;
81457;SDS011;70882;52.500;5.500;2023-06-22T04:09:49;52.88;;;28.90;;
81457;SDS011;70882;52.500;5.500;2023-06-22T04:12:14;50.97;;;27.23;;
81457;SDS011;70882;52.500;5.500;2023-06-22T04:14:40;53.45;;;28.30;;
81457;SDS011;70882;52.500;5.500;2023-06-22T04:17:05;50.15;;;26.85;;
81457;SDS011;70882;52.500;5.500;2023-06-22T04:19:30;52.33;;;29.40;;
81457;SDS011;70882;52.500;5.500;2023-06-22T04:21:56;54.25;;;30.10;;
81457;SDS011;70882;52.500;5.500;2023-06-22T04:24:21;55.05;;;29.25;;
81457;SDS011;70882;52.500;5.500;2023-06-22T04:26:47;56.70;;;30.63;;
81457;SDS011;70882;52.500;5.500;2023-06-22T04:29:12;51.28;;;28.20;;
81457;SDS011;70882;52.500;5.500;2023-06-22T04:31:38;53.83;;;28.17;;
81457;SDS011;70882;52.500;5.500;2023-06-22T04:34:04;55.25;;;29.08;;
81457;SDS011;70882;52.500;5.500;2023-06-22T04:36:37;52.72;;;29.23;;
81457;SDS011;70882;52.500;5.500;2023-06-22T04:39:08;54.30;;;28.25;;
81457;SDS011;70882;52.500;5.500;2023-06-22T04:41:38;51.05;;;28.70;;
81457;SDS011;70882;52.500;5.500;2023-06-22T04:44:14;50.85;;;28.85;;
81457;SDS011;70882;52.500;5.500;2023-06-22T04:46:52;50.75;;;30.05;;
81457;SDS011;70882;52.500;5.500;2023-06-22T04:49:19;52.88;;;28.63;;
81457;SDS011;70882;52.500;5.500;2023-06-22T04:51:45;52.03;;;28.52;;
81457;SDS011;70882;52.500;5.500;2023-06-22T04:54:11;54.83;;;30.05;;
81457;SDS011;70882;52.500;5.500;2023-06-22T04:56:36;55.50;;;31.45;;
81457;SDS011;70882;52.500;5.500;2023-06-22T04:59:02;55.00;;;30.13;;
81457;SDS011;70882;52.500;5.500;2023-06-22T05:01:28;50.85;;;28.70;;
81457;SDS011;70882;52.500;5.500;2023-06-22T05:03:56;50.42;;;29.13;;
81457;SDS011;70882;52.500;5.500;2023-06-22T05:06:22;50.20;;;29.90;;
81457;SDS011;70882;52.500;5.500;2023-06-22T05:08:53;47.45;;;28.27;;
81457;SDS011;70882;52.500;5.500;2023-06-22T05:11:26;49.65;;;27.73;;
81457;SDS011;70882;52.500;5.500;2023-06-22T05:13:51;54.25;;;29.00;;
81457;SDS011;70882;52.500;5.500;2023-06-22T05:16:17;51.28;;;28.02;;
81457;SDS011;70882;52.500;5.500;2023-06-22T05:18:48;44.88;;;26.60;;
81457;SDS011;70882;52.500;5.500;2023-06-22T05:21:14;45.88;;;26.40;;
81457;SDS011;70882;52.500;5.500;2023-06-22T05:23:39;47.05;;;25.23;;
81457;SDS011;70882;52.500;5.500;2023-06-22T05:26:04;39.72;;;22.67;;
81457;SDS011;70882;52.500;5.500;2023-06-22T05:28:30;41.13;;;24.85;;
81457;SDS011;70882;52.500;5.500;2023-06-22T05:30:55;29.80;;;17.70;;
81457;SDS011;70882;52.500;5.500;2023-06-22T05:33:20;26.17;;;16.27;;
81457;SDS011;70882;52.500;5.500;2023-06-22T05:35:46;23.70;;;14.82;;
81457;SDS011;70882;52.500;5.500;2023-06-22T05:38:11;38.25;;;21.67;;
81457;SDS011;70882;52.500;5.500;2023-06-22T05:40:37;29.85;;;19.40;;
81457;SDS011;70882;52.500;5.500;2023-06-22T05:43:02;38.85;;;22.27;;
81457;SDS011;70882;52.500;5.500;2023-06-22T05:45:27;29.95;;;18.23;;
81457;SDS011;70882;52.500;5.500;2023-06-22T05:47:53;25.38;;;15.35;;
81457;SDS011;70882;52.500;5.500;2023-06-22T05:50:18;27.42;;;17.83;;
81457;SDS011;70882;52.500;5.500;2023-06-22T05:52:43;34.72;;;21.63;;
81457;SDS011;70882;52.500;5.500;2023-06-22T05:55:09;32.65;;;20.63;;
81457;SDS011;70882;52.500;5.500;2023-06-22T05:57:34;35.72;;;22.25;;
81457;SDS011;70882;52.500;5.500;2023-06-22T05:59:59;34.17;;;21.83;;
81457;SDS011;70882;52.500;5.500;2023-06-22T06:02:25;36.58;;;22.13;;
81457;SDS011;70882;52.500;5.500;2023-06-22T06:04:50;40.88;;;24.48;;
81457;SDS011;70882;52.500;5.500;2023-06-22T06:07:17;35.33;;;21.35;;
81457;SDS011;70882;52.500;5.500;2023-06-22T06:09:43;35.20;;;23.58;;
81457;SDS011;70882;52.500;5.500;2023-06-22T06:12:08;39.53;;;22.80;;
81457;SDS011;70882;52.500;5.500;2023-06-22T06:14:33;39.35;;;22.63;;
81457;SDS011;70882;52.500;5.500;2023-06-22T06:16:59;37.22;;;21.73;;
81457;SDS011;70882;52.500;5.500;2023-06-22T06:19:24;35.90;;;23.45;;
81457;SDS011;70882;52.500;5.500;2023-06-22T06:21:49;37.30;;;22.92;;
81457;SDS011;70882;52.500;5.500;2023-06-22T06:24:15;35.42;;;21.40;;
81457;SDS011;70882;52.500;5.500;2023-06-22T06:26:40;35.67;;;20.90;;
81457;SDS011;70882;52.500;5.500;2023-06-22T06:29:06;34.40;;;21.90;;
81457;SDS011;70882;52.500;5.500;2023-06-22T06:31:31;34.38;;;21.40;;
81457;SDS011;70882;52.500;5.500;2023-06-22T06:33:56;34.97;;;21.52;;
81457;SDS011;70882;52.500;5.500;2023-06-22T06:36:22;30.38;;;20.15;;
81457;SDS011;70882;52.500;5.500;2023-06-22T06:38:47;34.92;;;22.42;;
81457;SDS011;70882;52.500;5.500;2023-06-22T06:41:13;33.17;;;21.40;;
81457;SDS011;70882;52.500;5.500;2023-06-22T06:43:39;31.13;;;20.90;;
81457;SDS011;70882;52.500;5.500;2023-06-22T06:46:05;33.70;;;21.10;;
81457;SDS011;70882;52.500;5.500;2023-06-22T06:48:30;35.58;;;20.58;;
81457;SDS011;70882;52.500;5.500;2023-06-22T06:50:55;34.83;;;20.48;;
81457;SDS011;70882;52.500;5.500;2023-06-22T06:53:21;36.30;;;21.83;;
81457;SDS011;70882;52.500;5.500;2023-06-22T06:55:46;31.48;;;19.80;;
81457;SDS011;70882;52.500;5.500;2023-06-22T06:58:11;30.45;;;19.80;;
81457;SDS011;70882;52.500;5.500;2023-06-22T07:00:38;33.10;;;19.55;;
81457;SDS011;70882;52.500;5.500;2023-06-22T07:03:03;31.92;;;19.55;;
81457;SDS011;70882;52.500;5.500;2023-06-22T07:05:29;32.13;;;19.23;;
81457;SDS011;70882;52.500;5.500;2023-06-22T07:07:54;31.38;;;19.80;;
81457;SDS011;70882;52.500;5.500;2023-06-22T07:10:19;30.05;;;19.25;;
81457;SDS011;70882;52.500;5.500;2023-06-22T07:12:45;32.08;;;19.30;;
81457;SDS011;70882;52.500;5.500;2023-06-22T07:15:11;32.15;;;19.77;;
81457;SDS011;70882;52.500;5.500;2023-06-22T07:17:37;30.02;;;19.63;;
81457;SDS011;70882;52.500;5.500;2023-06-22T07:20:05;31.95;;;19.00;;
81457;SDS011;70882;52.500;5.500;2023-06-22T07:22:34;33.15;;;21.13;;
81457;SDS011;70882;52.500;5.500;2023-06-22T07:25:00;27.63;;;18.52;;
81457;SDS011;70882;52.500;5.500;2023-06-22T07:27:26;32.08;;;18.10;;
81457;SDS011;70882;52.500;5.500;2023-06-22T07:29:51;37.10;;;20.25;;
81457;SDS011;70882;52.500;5.500;2023-06-22T07:32:16;30.25;;;19.38;;
81457;SDS011;70882;52.500;5.500;2023-06-22T07:34:42;34.08;;;20.10;;
81457;SDS011;70882;52.500;5.500;2023-06-22T07:37:08;29.23;;;19.15;;
81457;SDS011;70882;52.500;5.500;2023-06-22T07:39:33;33.90;;;18.00;;
81457;SDS011;70882;52.500;5.500;2023-06-22T07:41:59;28.30;;;17.20;;
81457;SDS011;70882;52.500;5.500;2023-06-22T07:44:24;29.48;;;18.13;;
81457;SDS011;70882;52.500;5.500;2023-06-22T07:46:50;30.27;;;18.17;;
81457;SDS011;70882;52.500;5.500;2023-06-22T07:49:16;29.35;;;18.70;;
81457;SDS011;70882;52.500;5.500;2023-06-22T07:51:42;29.58;;;18.65;;
81457;SDS011;70882;52.500;5.500;2023-06-22T07:54:08;30.95;;;17.40;;
81457;SDS011;70882;52.500;5.500;2023-06-22T07:56:35;26.83;;;17.42;;
81457;SDS011;70882;52.500;5.500;2023-06-22T07:59:01;27.27;;;16.38;;
81457;SDS011;70882;52.500;5.500;2023-06-22T08:01:28;26.90;;;16.08;;
81457;SDS011;70882;52.500;5.500;2023-06-22T08:03:54;25.30;;;16.48;;
81457;SDS011;70882;52.500;5.500;2023-06-22T08:06:19;27.98;;;16.90;;
81457;SDS011;70882;52.500;5.500;2023-06-22T08:08:44;28.67;;;17.67;;
81457;SDS011;70882;52.500;5.500;2023-06-22T08:11:12;23.42;;;14.85;;
81457;SDS011;70882;52.500;5.500;2023-06-22T08:13:38;25.98;;;16.70;;
81457;SDS011;70882;52.500;5.500;2023-06-22T08:16:03;27.17;;;18.15;;
81457;SDS011;70882;52.500;5.500;2023-06-22T08:18:29;26.25;;;16.58;;
81457;SDS011;70882;52.500;5.500;2023-06-22T08:20:54;26.10;;;17.38;;
81457;SDS011;70882;52.500;5.500;2023-06-22T08:23:19;26.63;;;16.25;;
81457;SDS011;70882;52.500;5.500;2023-06-22T08:25:45;25.92;;;15.30;;
81457;SDS011;70882;52.500;5.500;2023-06-22T08:28:10;18.38;;;11.27;;
81457;SDS011;70882;52.500;5.500;2023-06-22T08:30:35;16.42;;;12.15;;
81457;SDS011;70882;52.500;5.500;2023-06-22T08:33:01;17.70;;;11.90;;
81457;SDS011;70882;52.500;5.500;2023-06-22T08:35:26;17.02;;;12.38;;
81457;SDS011;70882;52.500;5.500;2023-06-22T08:37:51;25.67;;;14.27;;
81457;SDS011;70882;52.500;5.500;2023-06-22T08:40:19;20.48;;;12.85;;
81457;SDS011;70882;52.500;5.500;2023-06-22T08:42:45;20.02;;;13.00;;
81457;SDS011;70882;52.500;5.500;2023-06-22T08:45:11;20.67;;;14.77;;
81457;SDS011;70882;52.500;5.500;2023-06-22T08:47:37;23.17;;;15.23;;
81457;SDS011;70882;52.500;5.500;2023-06-22T08:50:02;18.98;;;13.85;;
81457;SDS011;70882;52.500;5.500;2023-06-22T08:52:30;20.73;;;13.13;;
81457;SDS011;70882;52.500;5.500;2023-06-22T08:54:55;18.63;;;12.70;;
81457;SDS011;70882;52.500;5.500;2023-06-22T08:57:21;19.30;;;12.48;;
81457;SDS011;70882;52.500;5.500;2023-06-22T08:59:46;19.00;;;12.63;;
81457;SDS011;70882;52.500;5.500;2023-06-22T09:02:12;19.27;;;13.18;;
81457;SDS011;70882;52.500;5.500;2023-06-22T09:04:37;19.88;;;14.10;;
81457;SDS011;70882;52.500;5.500;2023-06-22T09:07:03;23.13;;;15.00;;
81457;SDS011;70882;52.500;5.500;2023-06-22T09:09:28;23.15;;;15.55;;
81457;SDS011;70882;52.500;5.500;2023-06-22T09:11:53;18.92;;;14.23;;
81457;SDS011;70882;52.500;5.500;2023-06-22T09:14:19;22.88;;;15.18;;
81457;SDS011;70882;52.500;5.500;2023-06-22T09:16:45;21.17;;;13.30;;
81457;SDS011;70882;52.500;5.500;2023-06-22T09:19:10;20.80;;;14.23;;
81457;SDS011;70882;52.500;5.500;2023-06-22T09:21:36;20.67;;;13.63;;
81457;SDS011;70882;52.500;5.500;2023-06-22T09:24:01;23.77;;;15.82;;
81457;SDS011;70882;52.500;5.500;2023-06-22T09:26:27;21.50;;;14.10;;
81457;SDS011;70882;52.500;5.500;2023-06-22T09:28:52;21.55;;;13.88;;
81457;SDS011;70882;52.500;5.500;2023-06-22T09:31:18;23.45;;;14.32;;
81457;SDS011;70882;52.500;5.500;2023-06-22T09:33:46;20.10;;;12.70;;
81457;SDS011;70882;52.500;5.500;2023-06-22T09:36:12;17.40;;;12.25;;
81457;SDS011;70882;52.500;5.500;2023-06-22T09:38:38;19.20;;;12.40;;
81457;SDS011;70882;52.500;5.500;2023-06-22T09:41:03;18.40;;;12.40;;
81457;SDS011;70882;52.500;5.500;2023-06-22T09:43:31;19.20;;;12.00;;
81457;SDS011;70882;52.500;5.500;2023-06-22T09:45:57;17.73;;;11.88;;
81457;SDS011;70882;52.500;5.500;2023-06-22T09:48:22;18.42;;;12.25;;
81457;SDS011;70882;52.500;5.500;2023-06-22T09:50:48;16.98;;;12.30;;
81457;SDS011;70882;52.500;5.500;2023-06-22T09:53:13;16.73;;;11.20;;
81457;SDS011;70882;52.500;5.500;2023-06-22T09:55:38;15.85;;;11.07;;
81457;SDS011;70882;52.500;5.500;2023-06-22T09:58:04;21.52;;;11.20;;
81457;SDS011;70882;52.500;5.500;2023-06-22T10:00:29;17.27;;;10.73;;
81457;SDS011;70882;52.500;5.500;2023-06-22T10:02:54;15.52;;;9.23;;
81457;SDS011;70882;52.500;5.500;2023-06-22T10:05:20;16.92;;;10.27;;
81457;SDS011;70882;52.500;5.500;2023-06-22T10:07:46;15.05;;;9.40;;
81457;SDS011;70882;52.500;5.500;2023-06-22T10:10:12;10.80;;;7.63;;
81457;SDS011;70882;52.500;5.500;2023-06-22T10:12:40;14.23;;;9.95;;
81457;SDS011;70882;52.500;5.500;2023-06-22T10:15:26;13.80;;;8.77;;
81457;SDS011;70882;52.500;5.500;2023-06-22T10:17:51;13.88;;;9.63;;
81457;SDS011;70882;52.500;5.500;2023-06-22T10:20:17;13.35;;;8.05;;
81457;SDS011;70882;52.500;5.500;2023-06-22T10:22:43;14.30;;;8.52;;
81457;SDS011;70882;52.500;5.500;2023-06-22T10:25:10;15.35;;;9.43;;
81457;SDS011;70882;52.500;5.500;2023-06-22T10:27:36;12.60;;;8.98;;
81457;SDS011;70882;52.500;5.500;2023-06-22T10:30:01;14.65;;;9.10;;
81457;SDS011;70882;52.500;5.500;2023-06-22T10:32:27;14.05;;;8.90;;
81457;SDS011;70882;52.500;5.500;2023-06-22T10:34:53;12.20;;;8.70;;
81457;SDS011;70882;52.500;5.500;2023-06-22T10:37:19;13.13;;;7.30;;
81457;SDS011;70882;52.500;5.500;2023-06-22T10:39:44;11.00;;;8.20;;
81457;SDS011;70882;52.500;5.500;2023-06-22T10:42:09;9.90;;;6.47;;
81457;SDS011;70882;52.500;5.500;2023-06-22T10:44:35;9.93;;;7.25;;
81457;SDS011;70882;52.500;5.500;2023-06-22T10:47:00;8.20;;;6.13;;
81457;SDS011;70882;52.500;5.500;2023-06-22T10:49:25;9.23;;;6.00;;
81457;SDS011;70882;52.500;5.500;2023-06-22T10:51:50;9.85;;;5.60;;
81457;SDS011;70882;52.500;5.500;2023-06-22T10:54:16;7.68;;;5.40;;
81457;SDS011;70882;52.500;5.500;2023-06-22T10:56:43;7.68;;;5.53;;
81457;SDS011;70882;52.500;5.500;2023-06-22T10:59:08;8.73;;;6.60;;
81457;SDS011;70882;52.500;5.500;2023-06-22T11:01:34;9.85;;;6.80;;
81457;SDS011;70882;52.500;5.500;2023-06-22T11:03:59;11.10;;;7.03;;
81457;SDS011;70882;52.500;5.500;2023-06-22T11:06:24;10.18;;;6.25;;
81457;SDS011;70882;52.500;5.500;2023-06-22T11:08:50;9.55;;;5.50;;
81457;SDS011;70882;52.500;5.500;2023-06-22T11:11:15;10.57;;;6.22;;
81457;SDS011;70882;52.500;5.500;2023-06-22T11:13:42;10.05;;;6.68;;
81457;SDS011;70882;52.500;5.500;2023-06-22T11:16:08;8.70;;;5.88;;
81457;SDS011;70882;52.500;5.500;2023-06-22T11:18:34;10.55;;;6.15;;
81457;SDS011;70882;52.500;5.500;2023-06-22T11:21:00;10.43;;;6.55;;
81457;SDS011;70882;52.500;5.500;2023-06-22T11:23:25;10.48;;;6.90;;
81457;SDS011;70882;52.500;5.500;2023-06-22T11:25:52;8.90;;;5.88;;
81457;SDS011;70882;52.500;5.500;2023-06-22T11:28:17;11.60;;;6.75;;
81457;SDS011;70882;52.500;5.500;2023-06-22T11:30:43;8.05;;;6.32;;
81457;SDS011;70882;52.500;5.500;2023-06-22T11:33:08;8.73;;;5.88;;
81457;SDS011;70882;52.500;5.500;2023-06-22T11:35:33;8.93;;;6.13;;
81457;SDS011;70882;52.500;5.500;2023-06-22T11:37:59;10.35;;;6.32;;
81457;SDS011;70882;52.500;5.500;2023-06-22T11:40:24;8.32;;;6.13;;
81457;SDS011;70882;52.500;5.500;2023-06-22T11:42:49;10.70;;;5.97;;
81457;SDS011;70882;52.500;5.500;2023-06-22T11:45:14;9.68;;;5.95;;
81457;SDS011;70882;52.500;5.500;2023-06-22T11:47:41;9.48;;;6.10;;
81457;SDS011;70882;52.500;5.500;2023-06-22T11:50:07;8.48;;;6.10;;
81457;SDS011;70882;52.500;5.500;2023-06-22T11:52:33;7.80;;;5.95;;
81457;SDS011;70882;52.500;5.500;2023-06-22T11:55:00;8.45;;;6.60;;
81457;SDS011;70882;52.500;5.500;2023-06-22T11:57:28;7.43;;;6.18;;
81457;SDS011;70882;52.500;5.500;2023-06-22T11:59:53;11.43;;;6.57;;
81457;SDS011;70882;52.500;5.500;2023-06-22T12:02:19;13.00;;;6.50;;
81457;SDS011;70882;52.500;5.500;2023-06-22T12:04:44;10.35;;;6.25;;
81457;SDS011;70882;52.500;5.500;2023-06-22T12:07:09;11.07;;;6.47;;
81457;SDS011;70882;52.500;5.500;2023-06-22T12:09:35;9.80;;;7.50;;
81457;SDS011;70882;52.500;5.500;2023-06-22T12:12:00;9.50;;;6.35;;
81457;SDS011;70882;52.500;5.500;2023-06-22T12:14:25;8.23;;;6.07;;
81457;SDS011;70882;52.500;5.500;2023-06-22T12:16:50;8.50;;;6.63;;
81457;SDS011;70882;52.500;5.500;2023-06-22T12:19:16;13.43;;;7.40;;
81457;SDS011;70882;52.500;5.500;2023-06-22T12:21:41;10.88;;;7.53;;
81457;SDS011;70882;52.500;5.500;2023-06-22T12:24:10;8.75;;;6.80;;
81457;SDS011;70882;52.500;5.500;2023-06-22T12:26:35;10.90;;;6.85;;
81457;SDS011;70882;52.500;5.500;2023-06-22T12:29:01;9.05;;;6.90;;
81457;SDS011;70882;52.500;5.500;2023-06-22T12:31:26;9.32;;;6.85;;
81457;SDS011;70882;52.500;5.500;2023-06-22T12:33:51;12.95;;;7.70;;
81457;SDS011;70882;52.500;5.500;2023-06-22T12:36:16;10.40;;;7.38;;
81457;SDS011;70882;52.500;5.500;2023-06-22T12:38:42;12.63;;;7.95;;
81457;SDS011;70882;52.500;5.500;2023-06-22T12:41:07;10.93;;;7.82;;
81457;SDS011;70882;52.500;5.500;2023-06-22T12:43:32;10.88;;;7.47;;
81457;SDS011;70882;52.500;5.500;2023-06-22T12:45:58;10.70;;;7.80;;
81457;SDS011;70882;52.500;5.500;2023-06-22T12:48:23;9.85;;;7.53;;
81457;SDS011;70882;52.500;5.500;2023-06-22T12:50:50;11.00;;;8.10;;
81457;SDS011;70882;52.500;5.500;2023-06-22T12:53:16;10.20;;;7.65;;
81457;SDS011;70882;52.500;5.500;2023-06-22T12:55:41;9.15;;;6.97;;
81457;SDS011;70882;52.500;5.500;2023-06-22T12:58:06;9.82;;;7.78;;
81457;SDS011;70882;52.500;5.500;2023-06-22T13:00:32;11.02;;;7.70;;
81457;SDS011;70882;52.500;5.500;2023-06-22T13:02:57;10.25;;;7.15;;
81457;SDS011;70882;52.500;5.500;2023-06-22T13:05:22;11.35;;;8.13;;
81457;SDS011;70882;52.500;5.500;2023-06-22T13:07:48;11.32;;;7.88;;
81457;SDS011;70882;52.500;5.500;2023-06-22T13:10:13;13.07;;;8.75;;
81457;SDS011;70882;52.500;5.500;2023-06-22T13:12:39;12.57;;;8.40;;
81457;SDS011;70882;52.500;5.500;2023-06-22T13:15:04;11.07;;;8.38;;
81457;SDS011;70882;52.500;5.500;2023-06-22T13:17:30;12.90;;;8.13;;
81457;SDS011;70882;52.500;5.500;2023-06-22T13:19:55;14.13;;;9.07;;
81457;SDS011;70882;52.500;5.500;2023-06-22T13:22:30;11.60;;;8.25;;
81457;SDS011;70882;52.500;5.500;2023-06-22T13:25:05;10.32;;;8.15;;
81457;SDS011;70882;52.500;5.500;2023-06-22T13:27:30;11.05;;;9.05;;
81457;SDS011;70882;52.500;5.500;2023-06-22T13:29:56;12.60;;;8.85;;
81457;SDS011;70882;52.500;5.500;2023-06-22T13:32:21;14.57;;;8.60;;
81457;SDS011;70882;52.500;5.500;2023-06-22T13:34:46;10.50;;;8.05;;
81457;SDS011;70882;52.500;5.500;2023-06-22T13:37:12;9.45;;;7.90;;
81457;SDS011;70882;52.500;5.500;2023-06-22T13:39:37;13.68;;;7.50;;
81457;SDS011;70882;52.500;5.500;2023-06-22T13:42:03;13.50;;;7.97;;
81457;SDS011;70882;52.500;5.500;2023-06-22T13:44:28;11.60;;;9.20;;
81457;SDS011;70882;52.500;5.500;2023-06-22T13:46:56;11.20;;;8.40;;
81457;SDS011;70882;52.500;5.500;2023-06-22T13:49:22;12.73;;;8.90;;
81457;SDS011;70882;52.500;5.500;2023-06-22T13:51:47;10.80;;;8.43;;
81457;SDS011;70882;52.500;5.500;2023-06-22T13:54:13;10.65;;;8.80;;
81457;SDS011;70882;52.500;5.500;2023-06-22T13:56:39;11.05;;;8.52;;
81457;SDS011;70882;52.500;5.500;2023-06-22T13:59:04;12.90;;;8.63;;
81457;SDS011;70882;52.500;5.500;2023-06-22T14:01:30;13.10;;;9.30;;
81457;SDS011;70882;52.500;5.500;2023-06-22T14:03:55;14.75;;;9.43;;
81457;SDS011;70882;52.500;5.500;2023-06-22T14:06:20;12.50;;;10.00;;
81457;SDS011;70882;52.500;5.500;2023-06-22T14:08:45;13.75;;;9.27;;
81457;SDS011;70882;52.500;5.500;2023-06-22T14:11:11;11.57;;;9.45;;
81457;SDS011;70882;52.500;5.500;2023-06-22T14:13:36;11.95;;;9.23;;
81457;SDS011;70882;52.500;5.500;2023-06-22T14:16:01;13.80;;;9.95;;
81457;SDS011;70882;52.500;5.500;2023-06-22T14:18:27;11.98;;;9.50;;
81457;SDS011;70882;52.500;5.500;2023-06-22T14:20:52;13.27;;;9.90;;
81457;SDS011;70882;52.500;5.500;2023-06-22T14:23:17;20.83;;;10.73;;
81457;SDS011;70882;52.500;5.500;2023-06-22T14:25:43;15.02;;;11.07;;
81457;SDS011;70882;52.500;5.500;2023-06-22T14:28:08;17.08;;;11.02;;
81457;SDS011;70882;52.500;5.500;2023-06-22T14:30:33;16.20;;;11.73;;